createdAt,value
2022-08-27T00:01:39.801Z,78.81
2022-08-27T00:05:47.057Z,78.71
2022-08-27T00:09:08.504Z,78.81
2022-08-27T00:11:06.550Z,78.81
2022-08-27T00:12:36.526Z,78.81
2022-08-27T00:14:28.147Z,78.81
2022-08-27T00:19:53.047Z,78.81
2022-08-27T00:22:20.933Z,78.61
2022-08-27T00:24:18.883Z,78.41
2022-08-27T00:26:40.162Z,78.51
2022-08-27T00:34:52.651Z,77.81
2022-08-27T00:40:59.493Z,77.91
2022-08-27T00:43:48.685Z,77.84
2022-08-27T00:47:52.877Z,77.95
2022-08-27T00:56:40.334Z,77.84
2022-08-27T01:04:16.308Z,77.64
2022-08-27T01:06:16.359Z,77.64
2022-08-27T01:08:43.008Z,77.55
2022-08-27T01:10:39.153Z,77.55
2022-08-27T01:12:57.062Z,77.55
2022-08-27T01:20:53.340Z,77.75
2022-08-27T01:23:40.993Z,77.34
2022-08-27T01:26:00.527Z,77.34
2022-08-27T01:28:52.083Z,77.24
2022-08-27T01:31:10.021Z,77.28
2022-08-27T01:33:27.603Z,77.48
2022-08-27T01:38:38.546Z,77.28
2022-08-27T01:40:05.832Z,77.28
2022-08-27T01:41:35.458Z,77.17
2022-08-27T01:45:17.219Z,76.97
2022-08-27T01:47:36.855Z,76.87
2022-08-27T01:49:24.614Z,76.87
2022-08-27T01:53:43.980Z,76.87
2022-08-27T01:56:27.313Z,76.97
2022-08-27T01:57:56.405Z,76.87
2022-08-27T02:02:23.124Z,76.87
2022-08-27T02:05:02.560Z,76.67
2022-08-27T02:10:21.783Z,76.57
2022-08-27T02:12:18.540Z,76.57
2022-08-27T02:14:41.993Z,76.67
2022-08-27T02:18:06.378Z,76.47
2022-08-27T02:20:05.322Z,76.61
2022-08-27T02:23:14.289Z,76.51
2022-08-27T02:26:43.264Z,76.61
2022-08-27T02:29:34.040Z,76.81
2022-08-27T02:33:44.785Z,76.71
2022-08-27T02:38:07.446Z,76.71
2022-08-27T02:40:50.921Z,77.11
2022-08-27T02:48:44.032Z,77.04
2022-08-27T02:50:47.785Z,76.95
2022-08-27T02:55:59.244Z,76.95
2022-08-27T02:58:49.937Z,76.95
2022-08-27T03:02:57.362Z,77.15
2022-08-27T03:04:45.582Z,77.25
2022-08-27T03:09:44.897Z,77.15
2022-08-27T03:11:17.105Z,77.15
2022-08-27T03:19:50.803Z,77.49
2022-08-27T03:23:30.134Z,77.69
2022-08-27T03:30:35.234Z,77.99
2022-08-27T03:32:05.466Z,78.03
2022-08-27T03:33:56.215Z,78.13
2022-08-27T03:35:25.515Z,78.13
2022-08-27T03:36:59.200Z,78.33
2022-08-27T03:40:22.253Z,78.33
2022-08-27T03:42:42.898Z,78.53
2022-08-27T03:44:11.783Z,78.53
2022-08-27T03:47:28.428Z,78.63
2022-08-27T03:48:58.595Z,78.74
2022-08-27T03:53:23.125Z,78.88
2022-08-27T03:55:55.421Z,79.08
2022-08-27T03:58:15.320Z,79.08
2022-08-27T04:00:14.859Z,79.17
2022-08-27T04:02:42.372Z,79.38
2022-08-27T04:06:45.450Z,79.58
2022-08-27T04:09:14.382Z,79.68
2022-08-27T04:11:46.019Z,79.92
2022-08-27T04:18:18.188Z,80.12
2022-08-27T04:20:56.989Z,80.02
2022-08-27T04:22:44.937Z,80.12
2022-08-27T04:25:17.674Z,80.32
2022-08-27T04:34:41.508Z,80.87
2022-08-27T04:36:08.521Z,80.97
2022-08-27T04:38:36.630Z,81.07
2022-08-27T04:41:08.431Z,81.27
2022-08-27T04:44:16.631Z,81.48
2022-08-27T04:55:02.836Z,81.92
2022-08-27T04:57:25.906Z,82.02
2022-08-27T04:58:53.410Z,82.22
2022-08-27T05:00:24.168Z,82.22
2022-08-27T05:02:23.344Z,82.42
2022-08-27T05:03:50.229Z,82.42
2022-08-27T05:11:36.189Z,82.93
2022-08-27T05:17:25.233Z,82.73
2022-08-27T05:20:22.370Z,82.83
2022-08-27T05:23:10.174Z,82.93
2022-08-27T05:24:39.064Z,82.93
2022-08-27T05:29:27.603Z,82.83
2022-08-27T05:30:57.976Z,82.83
2022-08-27T05:33:17.275Z,82.83
2022-08-27T05:34:47.146Z,83.03
2022-08-27T05:38:29.957Z,82.83
2022-08-27T05:39:59.943Z,82.93
2022-08-27T05:42:18.768Z,83.03
2022-08-27T05:46:06.523Z,83.13
2022-08-27T05:47:55.893Z,83.44
2022-08-27T05:50:52.181Z,83.03
2022-08-27T05:56:56.743Z,83.03
2022-08-27T06:01:06.980Z,83.03
2022-08-27T06:03:23.901Z,83.13
2022-08-27T06:05:31.921Z,83.13
2022-08-27T06:07:21.527Z,83.23
2022-08-27T06:09:22.236Z,83.13
2022-08-27T06:11:10.950Z,83.13
2022-08-27T06:15:08.535Z,83.23
2022-08-27T06:20:18.312Z,83.44
2022-08-27T06:22:14.836Z,83.54
2022-08-27T06:30:17.333Z,83.54
2022-08-27T06:34:43.467Z,83.44
2022-08-27T06:38:13.279Z,83.60
2022-08-27T06:40:03.038Z,83.70
2022-08-27T06:42:59.661Z,83.50
2022-08-27T06:44:28.504Z,83.50
2022-08-27T06:47:16.993Z,83.40
2022-08-27T06:50:42.363Z,82.85
2022-08-27T07:03:42.259Z,81.70
2022-08-27T07:10:38.114Z,80.65
2022-08-27T07:13:35.704Z,80.62
2022-08-27T07:20:22.718Z,79.57
2022-08-27T07:22:51.414Z,78.92
2022-08-27T07:30:34.263Z,77.68
2022-08-27T07:34:01.195Z,77.75
2022-08-27T07:37:32.425Z,77.04
2022-08-27T07:39:46.041Z,76.90
2022-08-27T07:45:59.594Z,75.56
2022-08-27T07:48:17.190Z,75.26
2022-08-27T07:51:33.188Z,74.05
2022-08-27T07:55:10.467Z,72.91
2022-08-27T07:58:29.176Z,71.09
2022-08-27T08:00:47.639Z,71.00
2022-08-27T08:02:16.504Z,70.86
2022-08-27T08:09:49.045Z,68.75
2022-08-27T08:15:42.387Z,68.41
2022-08-27T08:17:41.625Z,68.32
2022-08-27T08:19:12.919Z,68.12
2022-08-27T08:21:40.116Z,68.72
2022-08-27T08:34:59.250Z,67.55
2022-08-27T08:38:55.804Z,65.74
2022-08-27T08:40:24.738Z,65.54
2022-08-27T08:45:01.262Z,65.51
2022-08-27T08:52:12.306Z,64.91
2022-08-27T08:54:33.258Z,64.61
2022-08-27T08:57:31.358Z,65.31
2022-08-27T09:01:38.005Z,65.61
2022-08-27T09:06:23.595Z,66.52
2022-08-27T09:08:34.150Z,65.71
2022-08-27T09:16:14.483Z,65.38
2022-08-27T09:17:43.455Z,65.68
2022-08-27T09:19:43.886Z,63.87
2022-08-27T09:27:21.890Z,63.54
2022-08-27T09:30:52.599Z,64.95
2022-08-27T09:32:53.725Z,64.04
2022-08-27T09:34:43.567Z,64.04
2022-08-27T09:37:54.520Z,63.54
2022-08-27T09:39:23.632Z,64.54
2022-08-27T09:44:41.028Z,65.35
2022-08-27T09:48:48.555Z,66.15
2022-08-27T09:56:25.376Z,66.25
2022-08-27T10:02:28.650Z,65.85
2022-08-27T10:05:29.371Z,65.85
2022-08-27T10:07:58.254Z,65.15
2022-08-27T10:11:43.903Z,64.95
2022-08-27T10:22:12.532Z,64.62
2022-08-27T10:25:40.700Z,62.08
2022-08-27T10:28:39.738Z,61.15
2022-08-27T10:30:55.660Z,61.45
2022-08-27T10:32:55.906Z,60.72
2022-08-27T10:34:54.193Z,61.32
2022-08-27T10:37:50.639Z,60.62
2022-08-27T10:47:04.147Z,60.32
2022-08-27T10:49:04.306Z,60.72
2022-08-27T10:56:34.030Z,60.86
2022-08-27T10:59:20.747Z,59.23
2022-08-27T11:03:09.353Z,57.39
2022-08-27T11:04:37.353Z,56.88
2022-08-27T11:06:56.526Z,56.81
2022-08-27T11:08:55.607Z,57.01
2022-08-27T11:14:53.280Z,58.11
2022-08-27T11:16:22.361Z,58.54
2022-08-27T11:18:52.753Z,58.14
2022-08-27T11:20:21.955Z,58.04
2022-08-27T11:22:14.903Z,58.04
2022-08-27T11:26:24.297Z,57.87
2022-08-27T11:29:22.013Z,58.17
2022-08-27T11:31:21.085Z,57.97
2022-08-27T11:32:50.776Z,57.54
2022-08-27T11:34:49.664Z,57.93
2022-08-27T11:37:48.420Z,58.17
2022-08-27T11:39:18.284Z,58.47
2022-08-27T11:41:17.210Z,59.06
2022-08-27T11:46:02.594Z,59.06
2022-08-27T11:47:31.435Z,59.47
2022-08-27T11:50:30.778Z,59.47
2022-08-27T11:52:58.090Z,59.97
2022-08-27T11:54:27.970Z,59.86
2022-08-27T11:59:15.020Z,60.06
2022-08-27T12:02:11.167Z,60.77
2022-08-27T12:06:05.549Z,61.07
2022-08-27T12:10:58.118Z,61.13
2022-08-27T12:14:54.017Z,60.44
2022-08-27T12:16:52.260Z,61.54
2022-08-27T12:18:50.090Z,59.53
2022-08-27T12:20:47.906Z,60.03
2022-08-27T12:22:47.796Z,59.74
2022-08-27T12:26:33.223Z,60.14
2022-08-27T12:28:02.120Z,60.44
2022-08-27T12:32:56.519Z,60.63
2022-08-27T12:36:54.297Z,62.81
2022-08-27T12:40:10.879Z,62.70
2022-08-27T12:43:37.429Z,60.83
2022-08-27T12:45:56.014Z,60.53
2022-08-27T12:48:24.732Z,61.83
2022-08-27T12:50:22.597Z,61.73
2022-08-27T12:51:51.524Z,62.53
2022-08-27T12:56:46.254Z,61.04
2022-08-27T12:59:14.195Z,61.63
2022-08-27T13:07:44.195Z,59.66
2022-08-27T13:09:41.943Z,60.06
2022-08-27T13:11:12.289Z,60.27
2022-08-27T13:12:39.970Z,59.97
2022-08-27T13:14:09.785Z,59.86
2022-08-27T13:15:38.728Z,59.86
2022-08-27T13:17:07.549Z,59.77
2022-08-27T13:22:01.367Z,59.06
2022-08-27T13:28:15.811Z,61.33
2022-08-27T13:33:09.928Z,60.74
2022-08-27T13:38:16.398Z,60.63
2022-08-27T13:48:36.288Z,60.77
2022-08-27T13:51:03.918Z,59.86
2022-08-27T13:53:31.561Z,59.47
2022-08-27T13:56:30.640Z,60.16
2022-08-27T13:58:58.612Z,59.56
2022-08-27T14:00:56.107Z,58.86
2022-08-27T14:08:38.564Z,59.17
2022-08-27T14:13:22.847Z,59.47
2022-08-27T14:19:16.364Z,60.24
2022-08-27T14:22:44.529Z,59.23
2022-08-27T14:28:37.840Z,57.71
2022-08-27T14:31:36.463Z,57.51
2022-08-27T14:37:51.618Z,56.51
2022-08-27T14:39:51.485Z,55.55
2022-08-27T14:43:18.227Z,56.18
2022-08-27T14:44:47.104Z,56.18
2022-08-27T14:48:51.733Z,55.71
2022-08-27T14:50:18.126Z,55.91
2022-08-27T14:55:32.407Z,56.46
2022-08-27T14:57:31.170Z,57.06
2022-08-27T15:00:29.761Z,57.39
2022-08-27T15:02:58.691Z,57.68
2022-08-27T15:04:28.060Z,58.48
2022-08-27T15:06:56.444Z,57.48
2022-08-27T15:11:21.375Z,57.81
2022-08-27T15:13:20.374Z,58.21
2022-08-27T15:15:48.098Z,59.11
2022-08-27T15:17:46.832Z,58.51
2022-08-27T15:21:13.598Z,58.01
2022-08-27T15:24:12.175Z,58.61
2022-08-27T15:27:38.467Z,58.91
2022-08-27T15:29:33.266Z,59.21
2022-08-27T15:32:52.004Z,58.41
2022-08-27T15:37:18.552Z,58.81
2022-08-27T15:40:14.172Z,58.21
2022-08-27T15:43:50.365Z,58.64
2022-08-27T15:45:19.256Z,57.93
2022-08-27T15:48:17.152Z,57.93
2022-08-27T15:50:15.352Z,57.24
2022-08-27T15:55:10.097Z,57.74
2022-08-27T15:58:05.894Z,57.44
2022-08-27T16:02:51.367Z,57.14
2022-08-27T16:06:47.060Z,57.14
2022-08-27T16:08:16.934Z,57.34
2022-08-27T16:10:14.901Z,57.24
2022-08-27T16:13:13.533Z,56.94
2022-08-27T16:18:08.899Z,56.64
2022-08-27T16:23:34.449Z,56.46
2022-08-27T16:25:33.250Z,56.16
2022-08-27T16:30:26.986Z,56.16
2022-08-27T16:32:54.382Z,56.46
2022-08-27T16:35:22.033Z,56.67
2022-08-27T16:39:47.598Z,57.26
2022-08-27T16:42:44.197Z,57.57
2022-08-27T16:44:42.972Z,58.06
2022-08-27T16:48:41.094Z,57.07
2022-08-27T16:50:11.007Z,57.07
2022-08-27T16:52:12.343Z,57.37
2022-08-27T16:54:02.062Z,57.37
2022-08-27T16:55:30.946Z,57.17
2022-08-27T16:59:54.979Z,57.37
2022-08-27T17:04:07.982Z,57.07
2022-08-27T17:05:35.953Z,57.26
2022-08-27T17:06:51.408Z,57.29
2022-08-27T17:10:48.953Z,57.39
2022-08-27T17:13:44.785Z,56.89
2022-08-27T17:17:12.461Z,56.70
2022-08-27T17:18:42.345Z,56.89
2022-08-27T17:20:12.277Z,56.99
2022-08-27T17:23:38.997Z,57.19
2022-08-27T17:26:06.665Z,57.69
2022-08-27T17:28:05.541Z,57.72
2022-08-27T17:30:03.432Z,58.22
2022-08-27T17:32:31.175Z,58.22
2022-08-27T17:34:30.159Z,58.22
2022-08-27T17:36:28.150Z,58.52
2022-08-27T17:37:58.503Z,58.22
2022-08-27T17:39:56.017Z,57.92
2022-08-27T17:41:24.977Z,57.92
2022-08-27T17:42:54.230Z,58.22
2022-08-27T17:44:52.636Z,58.22
2022-08-27T17:48:48.961Z,57.95
2022-08-27T17:55:31.949Z,58.65
2022-08-27T17:57:01.615Z,58.85
2022-08-27T17:58:58.712Z,59.08
2022-08-27T18:01:54.722Z,59.48
2022-08-27T18:03:44.950Z,59.48
2022-08-27T18:07:33.927Z,60.08
2022-08-27T18:08:59.148Z,60.01
2022-08-27T18:11:26.225Z,60.11
2022-08-27T18:13:55.486Z,60.21
2022-08-27T18:15:43.896Z,60.01
2022-08-27T18:18:42.124Z,60.11
2022-08-27T18:20:11.772Z,60.14
2022-08-27T18:21:46.949Z,60.24
2022-08-27T18:23:21.142Z,60.44
2022-08-27T18:26:40.725Z,60.53
2022-08-27T18:28:09.653Z,60.24
2022-08-27T18:33:06.157Z,60.57
2022-08-27T18:34:35.060Z,60.77
2022-08-27T18:41:27.631Z,61.30
2022-08-27T18:44:53.554Z,61.40
2022-08-27T18:46:22.464Z,61.50
2022-08-27T18:49:20.149Z,61.52
2022-08-27T18:51:52.426Z,61.72
2022-08-27T18:55:04.372Z,61.93
2022-08-27T18:56:34.408Z,61.96
2022-08-27T18:59:02.354Z,62.26
2022-08-27T19:01:02.135Z,62.36
2022-08-27T19:02:30.701Z,62.46
2022-08-27T19:07:13.941Z,63.19
2022-08-27T19:08:42.765Z,63.39
2022-08-27T19:10:12.341Z,63.49
2022-08-27T19:13:07.574Z,63.93
2022-08-27T19:15:06.360Z,64.13
2022-08-27T19:21:30.672Z,64.53
2022-08-27T19:23:29.452Z,64.53
2022-08-27T19:25:27.371Z,64.83
2022-08-27T19:29:22.994Z,64.86
2022-08-27T19:30:51.943Z,65.06
2022-08-27T19:34:17.871Z,65.26
2022-08-27T19:36:16.954Z,65.36
2022-08-27T19:38:15.537Z,65.56
2022-08-27T19:44:55.317Z,65.90
2022-08-27T19:52:13.870Z,66.10
2022-08-27T19:56:36.341Z,66.33
2022-08-27T19:58:36.294Z,66.53
2022-08-27T20:00:35.071Z,66.63
2022-08-27T20:02:33.893Z,66.74
2022-08-27T20:04:02.803Z,66.83
2022-08-27T20:06:01.006Z,67.03
2022-08-27T20:07:29.699Z,67.14
2022-08-27T20:09:57.476Z,67.14
2022-08-27T20:11:56.309Z,67.37
2022-08-27T20:17:40.616Z,67.77
2022-08-27T20:21:06.689Z,67.88
2022-08-27T20:23:06.486Z,68.28
2022-08-27T20:25:35.262Z,68.41
2022-08-27T20:28:38.957Z,68.71
2022-08-27T20:30:22.870Z,68.71
2022-08-27T20:33:20.504Z,68.71
2022-08-27T20:36:49.400Z,69.01
2022-08-27T20:38:47.649Z,69.01
2022-08-27T20:40:17.094Z,69.12
2022-08-27T20:41:45.948Z,69.25
2022-08-27T20:47:00.070Z,69.55
2022-08-27T20:48:28.943Z,69.75
2022-08-27T20:54:49.847Z,70.19
2022-08-27T20:56:52.876Z,70.39
2022-08-27T21:02:46.191Z,70.79
2022-08-27T21:06:42.440Z,71.30
2022-08-27T21:08:11.459Z,71.23
2022-08-27T21:09:55.618Z,71.23
2022-08-27T21:12:00.845Z,71.33
2022-08-27T21:13:59.619Z,71.53
2022-08-27T21:22:40.186Z,72.17
2022-08-27T21:24:09.532Z,72.07
2022-08-27T21:26:07.997Z,72.48
2022-08-27T21:31:02.709Z,72.48
2022-08-27T21:35:29.004Z,72.68
2022-08-27T21:38:54.916Z,72.81
2022-08-27T21:44:46.082Z,73.02
2022-08-27T21:47:14.825Z,73.22
2022-08-27T21:48:44.002Z,73.22
2022-08-27T21:54:10.396Z,73.55
2022-08-27T21:59:31.980Z,73.75
2022-08-27T22:01:02.220Z,73.86
2022-08-27T22:03:00.677Z,73.86
2022-08-27T22:05:27.618Z,74.06
2022-08-27T22:10:12.892Z,74.46
2022-08-27T22:19:02.509Z,74.70
2022-08-27T22:20:31.118Z,74.70
2022-08-27T22:22:00.003Z,74.70
2022-08-27T22:27:23.255Z,75.01
2022-08-27T22:29:21.037Z,74.90
2022-08-27T22:33:47.376Z,75.31
2022-08-27T22:37:05.354Z,76.12
2022-08-27T22:42:46.425Z,76.35
2022-08-27T22:46:34.223Z,76.66
2022-08-27T22:49:22.699Z,76.76
2022-08-27T22:51:21.439Z,76.79
2022-08-27T22:56:15.213Z,76.90
2022-08-27T22:58:45.822Z,77.00
2022-08-27T23:02:37.488Z,77.10
2022-08-27T23:04:06.671Z,77.00
2022-08-27T23:05:40.461Z,77.00
2022-08-27T23:07:35.332Z,77.10
2022-08-27T23:09:33.187Z,77.34
2022-08-27T23:11:02.050Z,77.44
2022-08-27T23:16:57.180Z,77.84
2022-08-27T23:19:15.722Z,77.95
2022-08-27T23:20:44.642Z,78.05
2022-08-27T23:32:17.572Z,78.66
2022-08-27T23:37:41.143Z,78.39
2022-08-27T23:43:35.458Z,78.49
2022-08-27T23:46:34.010Z,78.49
2022-08-27T23:50:02.694Z,78.49
2022-08-27T23:52:32.558Z,78.49
